Time;durP1;ratioP1;P1;durP2;ratioP2;P2;SDS_P1;SDS_P2;PMS_P1;PMS_P2;Temp;Humidity;BMP_temperature;BMP_pressure;BME280_temperature;BME280_humidity;BME280_pressure;Samples;Min_cycle;Max_cycle;Signal;HPM_P1;HPM_P2
2021/10/15 04:18:11;;;;;;;;;3.00;3.00;;;;;15.60;44.92;99052.41;6063992;28;97179;-68
2021/10/15 04:21:15;;;;;;;;;3.60;3.00;;;;;15.56;44.94;99046.66;6068305;28;97195;-68
2021/10/15 04:24:19;;;;;;;;;5.00;5.00;;;;;15.52;45.04;99042.00;6066476;28;97931;-67
2021/10/15 04:27:22;;;;;;;;;4.00;4.00;;;;;15.50;45.21;99044.91;6072000;28;97045;-67
2021/10/15 04:30:25;;;;;;;;;4.00;3.00;;;;;15.49;45.30;99040.53;6068291;28;99037;-68
2021/10/15 04:33:30;;;;;;;;;3.40;3.40;;;;;15.53;45.10;99039.03;6068285;28;96915;-67
2021/10/15 04:36:35;;;;;;;;;4.60;4.00;;;;;15.51;44.93;99043.06;6068554;28;97775;-68
2021/10/15 04:39:39;;;;;;;;;4.00;3.00;;;;;15.52;44.86;99039.28;6071292;28;97421;-67
2021/10/15 04:42:42;;;;;;;;;3.00;2.25;;;;;15.55;44.79;99042.31;6074006;28;96840;-68
2021/10/15 04:45:48;;;;;;;;;4.00;4.00;;;;;15.56;44.86;99040.41;6069060;28;96660;-67
2021/10/15 04:48:53;;;;;;;;;3.40;3.00;;;;;15.57;44.74;99033.91;6064125;28;99446;-68
2021/10/15 04:51:56;;;;;;;;;5.00;4.60;;;;;15.61;44.73;99040.47;6055396;28;97162;-68
2021/10/15 04:54:59;;;;;;;;;4.00;3.00;;;;;15.60;44.68;99026.06;6078258;28;97208;-67
2021/10/15 04:58:03;;;;;;;;;2.60;2.60;;;;;15.60;44.65;99025.25;6066635;28;97810;-68
2021/10/15 05:01:06;;;;;;;;;4.00;4.00;;;;;15.58;44.61;99022.78;6065103;28;97439;-68
2021/10/15 05:04:11;;;;;;;;;4.00;4.00;;;;;15.39;44.72;99005.09;6058669;28;97016;-68
2021/10/15 05:07:15;;;;;;;;;4.00;4.00;;;;;15.57;44.48;99034.72;6057448;28;96486;-67
2021/10/15 05:10:20;;;;;;;;;3.00;3.00;;;;;15.66;44.57;99028.84;6059936;28;97601;-68
2021/10/15 05:13:23;;;;;;;;;3.50;3.00;;;;;15.70;44.39;99038.16;6068277;28;96597;-68
2021/10/15 05:16:27;;;;;;;;;4.60;4.60;;;;;15.68;44.43;99029.44;6074763;28;96814;-67
2021/10/15 05:19:33;;;;;;;;;4.00;4.00;;;;;15.74;44.53;99031.97;6078243;28;97415;-67
2021/10/15 05:22:36;;;;;;;;;4.00;4.00;;;;;15.69;44.70;99025.63;6073078;28;98451;-66
2021/10/15 05:25:40;;;;;;;;;5.00;5.00;;;;;15.74;44.54;99025.69;6082614;28;97817;-67
2021/10/15 05:28:43;;;;;;;;;5.00;4.00;;;;;15.76;44.54;99031.72;6088632;28;97921;-66
2021/10/15 05:31:46;;;;;;;;;3.40;3.40;;;;;15.76;44.51;99020.84;6089077;28;97711;-68
2021/10/15 05:34:56;;;;;;;;;4.00;4.00;;;;;15.76;44.52;99021.66;6085838;28;99490;-66
2021/10/15 05:38:24;;;;;;;;;3.00;3.00;;;;;15.77;44.33;99020.59;6057683;28;97595;-70
2021/10/15 05:41:27;;;;;;;;;4.00;4.00;;;;;15.75;44.40;99027.34;6069117;28;98537;-69
2021/10/15 05:44:31;;;;;;;;;4.40;4.00;;;;;15.78;44.49;99026.84;6084458;28;97660;-69
2021/10/15 05:47:34;;;;;;;;;3.00;3.00;;;;;15.82;44.48;99028.00;6085452;28;96836;-65
2021/10/15 05:50:39;;;;;;;;;4.00;4.00;;;;;15.84;44.38;99018.50;6086315;28;97182;-66
2021/10/15 05:53:43;;;;;;;;;5.00;4.00;;;;;15.83;44.50;99018.78;6084380;28;97087;-70
2021/10/15 05:57:01;;;;;;;;;3.50;3.50;;;;;15.85;44.67;99022.03;6087845;28;96727;-68
2021/10/15 06:00:06;;;;;;;;;4.80;4.80;;;;;15.93;44.50;99019.69;6088962;28;97113;-68
2021/10/15 06:03:15;;;;;;;;;6.00;4.40;;;;;16.00;44.23;99024.97;6088343;28;97814;-68
2021/10/15 06:16:50;;;;;;;;;5.00;5.00;;;;;16.24;43.98;99017.34;6005904;28;97331;-67
2021/10/15 06:19:53;;;;;;;;;5.00;5.00;;;;;16.28;43.76;99015.75;6089351;28;97538;-66
2021/10/15 06:22:58;;;;;;;;;4.00;4.00;;;;;16.29;44.11;99018.22;6087448;28;96632;-68
2021/10/15 06:26:02;;;;;;;;;5.00;5.00;;;;;16.46;43.50;99013.53;6082398;28;96868;-69
2021/10/15 06:29:05;;;;;;;;;5.00;5.00;;;;;16.56;43.19;99015.53;6088349;28;97097;-66
2021/10/15 06:32:13;;;;;;;;;4.00;4.00;;;;;16.61;43.27;99014.78;6089049;28;97503;-66
2021/10/15 06:35:16;;;;;;;;;4.00;4.00;;;;;16.68;43.02;99008.03;6088639;28;96969;-69
2021/10/15 06:38:22;;;;;;;;;4.25;4.25;;;;;16.73;42.93;99002.66;6089876;28;97276;-68
2021/10/15 06:41:26;;;;;;;;;3.80;3.00;;;;;16.83;42.68;99010.91;6089956;28;97548;-68
2021/10/15 06:44:29;;;;;;;;;4.00;3.25;;;;;16.83;42.68;99012.81;6089663;28;96831;-65
2021/10/15 06:47:33;;;;;;;;;4.60;4.00;;;;;16.81;42.76;98995.91;6090146;28;98401;-67
2021/10/15 06:50:36;;;;;;;;;4.00;3.60;;;;;16.98;42.61;98998.50;6088878;28;96526;-67
2021/10/15 06:53:40;;;;;;;;;5.00;5.00;;;;;17.00;42.43;99002.63;6088966;28;97366;-67
2021/10/15 06:56:44;;;;;;;;;4.60;4.00;;;;;17.10;42.58;99005.41;6102530;28;96784;-66
2021/10/15 06:59:47;;;;;;;;;4.25;4.25;;;;;17.10;42.37;99005.41;6073846;28;97864;-66
2021/10/15 07:02:51;;;;;;;;;5.00;4.80;;;;;17.15;42.47;98994.53;6086251;28;97184;-66
2021/10/15 07:05:54;;;;;;;;;6.00;5.00;;;;;17.18;42.42;98990.47;6080720;28;96825;-68
2021/10/15 07:09:00;;;;;;;;;4.00;4.00;;;;;17.27;42.14;98994.34;6082682;28;96621;-67
2021/10/15 07:12:03;;;;;;;;;5.00;4.60;;;;;17.33;42.40;99004.19;6072091;28;98637;-68
2021/10/15 07:15:09;;;;;;;;;5.00;4.00;;;;;17.54;42.06;99005.16;6088573;28;96899;-64
2021/10/15 07:18:12;;;;;;;;;5.00;5.00;;;;;17.66;41.50;98994.88;6114487;28;97556;-65
2021/10/15 07:21:16;;;;;;;;;5.00;5.00;;;;;17.84;41.44;99001.81;6114586;28;96903;-65
2021/10/15 07:24:21;;;;;;;;;4.40;4.00;;;;;18.05;40.78;98995.31;6110266;28;97315;-64
2021/10/15 07:27:25;;;;;;;;;5.00;4.40;;;;;18.33;40.36;98983.94;6093327;28;99778;-64
2021/10/15 07:30:28;;;;;;;;;4.00;4.00;;;;;18.70;39.68;98985.69;6113151;28;97559;-65
2021/10/15 07:33:31;;;;;;;;;4.20;4.00;;;;;19.12;39.06;98982.66;6112272;28;98062;-69
2021/10/15 07:36:37;;;;;;;;;4.75;4.00;;;;;19.59;38.10;98974.97;6108993;28;97473;-69
2021/10/15 07:39:42;;;;;;;;;4.00;4.00;;;;;20.09;36.91;98982.13;6111257;28;98219;-67
2021/10/15 07:42:45;;;;;;;;;5.00;4.00;;;;;21.01;36.21;98979.66;6110049;28;96767;-66
2021/10/15 07:45:48;;;;;;;;;3.40;3.00;;;;;22.38;33.44;98988.00;6095451;28;97830;-68
2021/10/15 07:48:52;;;;;;;;;4.00;4.00;;;;;23.23;31.73;98982.28;6087543;28;96812;-66
2021/10/15 07:51:55;;;;;;;;;3.00;3.00;;;;;23.98;30.13;98993.00;6111693;28;97183;-67
2021/10/15 07:55:00;;;;;;;;;2.00;2.00;;;;;25.20;28.42;98996.56;6104697;28;97422;-66
2021/10/15 07:58:03;;;;;;;;;4.00;3.00;;;;;27.23;26.43;98985.88;6108149;28;97084;-67
2021/10/15 08:01:06;;;;;;;;;2.80;2.00;;;;;28.76;24.55;98984.72;6097335;28;97977;-67
2021/10/15 08:04:10;;;;;;;;;2.50;2.00;;;;;30.12;22.46;98981.63;6117326;28;97310;-65
2021/10/15 08:07:23;;;;;;;;;3.00;3.00;;;;;31.43;20.85;98981.94;6080852;28;96723;-68
2021/10/15 08:10:28;;;;;;;;;3.00;3.00;;;;;32.61;20.15;98978.09;6114318;28;97119;-68
2021/10/15 08:13:31;;;;;;;;;2.00;2.00;;;;;33.59;18.87;98988.91;6115177;28;97558;-67
2021/10/15 08:16:35;;;;;;;;;2.00;2.00;;;;;34.50;18.05;98961.69;6112838;28;97882;-66
2021/10/15 08:19:57;;;;;;;;;2.00;2.00;;;;;35.22;17.29;98969.84;6109880;28;97149;-67
2021/10/15 08:23:00;;;;;;;;;1.00;1.00;;;;;35.56;17.15;98970.59;6098133;28;98904;-65
2021/10/15 08:26:04;;;;;;;;;2.00;2.00;;;;;35.81;16.55;98963.22;6099306;28;98362;-66
2021/10/15 08:29:08;;;;;;;;;2.00;2.00;;;;;36.34;16.25;98965.66;6106215;28;97694;-69
2021/10/15 08:32:12;;;;;;;;;3.00;3.00;;;;;36.61;15.48;98964.22;6070825;28;99668;-67
2021/10/15 08:35:15;;;;;;;;;3.00;2.00;;;;;36.83;15.56;98965.94;6115646;28;97496;-70
2021/10/15 08:38:18;;;;;;;;;2.00;2.00;;;;;37.07;15.33;98958.84;6113383;28;98026;-69
2021/10/15 08:41:24;;;;;;;;;2.00;2.00;;;;;37.25;15.00;98956.88;6116382;28;96692;-68
2021/10/15 08:44:34;;;;;;;;;2.00;2.00;;;;;37.32;14.98;98947.66;6109987;28;96618;-68
2021/10/15 08:47:37;;;;;;;;;2.80;2.00;;;;;37.55;14.47;98956.56;6106276;28;96705;-68
2021/10/15 08:51:00;;;;;;;;;3.00;3.00;;;;;37.58;14.75;98947.31;6111525;28;97407;-67
2021/10/15 08:54:04;;;;;;;;;1.00;1.00;;;;;37.66;14.47;98946.13;6113844;28;96864;-68
2021/10/15 08:57:08;;;;;;;;;2.00;2.00;;;;;37.58;14.55;98950.13;6114900;28;97619;-68
2021/10/15 09:00:21;;;;;;;;;1.00;1.00;;;;;37.65;14.31;98947.34;6111706;28;97418;-68
2021/10/15 09:03:25;;;;;;;;;3.00;2.00;;;;;37.87;14.17;98947.34;6096263;28;97302;-69
2021/10/15 09:06:36;;;;;;;;;2.00;2.00;;;;;37.87;14.33;98941.72;6114699;28;97877;-69
2021/10/15 09:09:39;;;;;;;;;2.40;2.00;;;;;37.55;14.71;98936.06;6095777;28;98482;-66
2021/10/15 09:12:46;;;;;;;;;1.60;1.60;;;;;37.56;14.30;98946.94;6114070;28;97733;-65
2021/10/15 09:15:51;;;;;;;;;2.00;2.00;;;;;37.57;14.58;98940.09;6096757;28;96681;-68
2021/10/15 09:18:55;;;;;;;;;2.00;1.60;;;;;37.46;14.34;98939.25;6099778;28;97640;-68
2021/10/15 09:22:20;;;;;;;;;3.00;2.00;;;;;37.25;14.70;98931.56;6106228;28;98488;-67
2021/10/15 09:25:23;;;;;;;;;1.40;1.00;;;;;37.21;14.77;98939.19;6120548;28;97640;-70
2021/10/15 09:28:29;;;;;;;;;2.00;1.75;;;;;37.26;14.57;98932.38;6114465;28;97505;-70
2021/10/15 09:31:32;;;;;;;;;2.00;1.00;;;;;37.13;14.65;98934.78;6113155;28;96687;-69
2021/10/15 09:34:35;;;;;;;;;2.00;2.00;;;;;37.17;14.91;98938.41;6115974;28;97402;-71
2021/10/15 09:37:40;;;;;;;;;2.00;2.00;;;;;37.13;14.78;98929.16;6112106;28;97424;-70
2021/10/15 09:40:47;;;;;;;;;2.00;2.00;;;;;37.06;14.75;98933.91;6090195;28;97169;-66
2021/10/15 09:43:52;;;;;;;;;1.80;1.80;;;;;37.05;14.88;98918.22;6106937;28;97448;-67
2021/10/15 09:47:13;;;;;;;;;2.40;2.40;;;;;36.66;14.94;98921.72;6098288;28;97288;-67
2021/10/15 09:50:18;;;;;;;;;2.00;1.00;;;;;36.34;15.58;98909.50;6114829;28;97509;-69
2021/10/15 09:53:21;;;;;;;;;3.00;2.00;;;;;36.38;15.64;98910.31;6106411;28;98031;-67
2021/10/15 09:56:39;;;;;;;;;2.00;2.00;;;;;36.46;15.20;98900.72;6095270;28;97482;-66
2021/10/15 09:59:44;;;;;;;;;2.00;1.00;;;;;36.55;15.19;98904.00;6111922;28;97135;-67
2021/10/15 10:02:48;;;;;;;;;2.00;2.00;;;;;36.69;15.34;98904.09;6096041;28;96751;-67
2021/10/15 10:05:51;;;;;;;;;1.00;1.00;;;;;36.87;14.59;98893.72;6097315;28;99885;-67
2021/10/15 10:09:00;;;;;;;;;2.20;2.00;;;;;37.02;14.68;98900.19;6108570;28;97496;-68
2021/10/15 10:12:03;;;;;;;;;1.00;1.00;;;;;36.76;14.82;98886.44;6105791;28;98043;-66
2021/10/15 10:15:11;;;;;;;;;2.00;2.00;;;;;36.84;15.43;98886.09;6107082;28;99641;-65
2021/10/15 10:18:25;;;;;;;;;2.00;2.00;;;;;37.11;15.40;98885.75;6089450;28;96870;-66
2021/10/15 10:21:34;;;;;;;;;2.00;2.00;;;;;37.42;15.23;98884.19;6101681;28;97216;-66
2021/10/15 10:24:45;;;;;;;;;1.00;1.00;;;;;37.11;14.76;98880.13;6081681;28;97868;-67
2021/10/15 10:27:48;;;;;;;;;2.00;2.00;;;;;36.12;15.12;98874.84;6111062;28;97433;-67
2021/10/15 10:30:56;;;;;;;;;2.00;2.00;;;;;34.57;16.47;98880.56;6099760;28;96639;-66
2021/10/15 10:34:01;;;;;;;;;2.00;2.00;;;;;34.20;17.09;98868.50;6095882;28;97177;-68
2021/10/15 10:37:06;;;;;;;;;2.40;2.00;;;;;32.99;18.24;98863.63;6112980;28;97577;-65
2021/10/15 10:40:26;;;;;;;;;2.00;2.00;;;;;33.48;17.96;98866.53;6106269;28;97470;-68
2021/10/15 10:43:30;;;;;;;;;2.75;2.00;;;;;33.80;17.87;98860.69;6113320;28;97554;-68
2021/10/15 10:46:34;;;;;;;;;3.00;3.00;;;;;33.15;18.22;98857.94;6096630;28;97193;-64
2021/10/15 10:49:38;;;;;;;;;2.00;2.00;;;;;33.08;17.90;98825.13;6110884;28;96583;-66
2021/10/15 10:53:05;;;;;;;;;2.00;2.00;;;;;33.43;18.06;98838.88;6100981;28;97047;-66
2021/10/15 10:56:40;;;;;;;;;1.00;1.00;;;;;33.79;17.75;98847.88;6106128;28;97129;-68
2021/10/15 10:59:44;;;;;;;;;2.00;2.00;;;;;32.80;18.15;98846.91;6103339;28;96907;-66
2021/10/15 11:02:51;;;;;;;;;1.25;1.25;;;;;32.33;18.70;98843.53;6100736;28;97588;-68
2021/10/15 11:05:55;;;;;;;;;2.00;2.00;;;;;32.16;18.87;98841.97;6106511;28;97187;-68
2021/10/15 13:08:51;;;;;;;;;1.00;1.00;;;;;22.72;31.24;98736.91;6129303;28;97441;-66
2021/10/15 13:11:55;;;;;;;;;2.50;2.00;;;;;22.59;31.15;98738.47;6139737;28;97040;-66
2021/10/15 13:14:58;;;;;;;;;2.00;2.00;;;;;22.30;31.90;98733.22;6117213;28;97761;-65
2021/10/15 13:18:02;;;;;;;;;3.00;2.80;;;;;22.23;32.29;98729.25;6139336;28;96695;-66
2021/10/15 13:21:06;;;;;;;;;3.00;3.00;;;;;22.17;32.21;98731.28;6121571;28;97102;-66
2021/10/15 13:24:11;;;;;;;;;3.00;3.00;;;;;22.35;32.48;98726.84;6139323;28;97454;-66
2021/10/15 13:27:15;;;;;;;;;4.00;3.00;;;;;22.69;32.00;98724.53;6097775;28;99256;-66
2021/10/15 13:30:19;;;;;;;;;2.00;2.00;;;;;22.71;31.53;98725.09;6108282;28;97540;-66
2021/10/15 13:33:24;;;;;;;;;2.00;2.00;;;;;22.87;30.80;98709.13;6120854;28;98807;-66
2021/10/15 13:36:28;;;;;;;;;3.00;3.00;;;;;23.05;30.43;98716.44;6104366;28;98586;-66
2021/10/15 13:39:32;;;;;;;;;1.00;1.00;;;;;23.14;30.09;98711.81;6135696;28;97105;-70
2021/10/15 13:42:49;;;;;;;;;2.00;2.00;;;;;23.12;30.07;98705.81;6106149;28;97614;-70
2021/10/15 13:46:00;;;;;;;;;3.00;3.00;;;;;23.20;29.93;98710.59;6134336;28;96869;-68
2021/10/15 13:52:27;;;;;;;;;2.00;2.00;;;;;22.98;30.06;98688.50;6109458;28;96821;-65
2021/10/15 13:55:36;;;;;;;;;2.00;2.00;;;;;23.18;30.15;98699.09;6123302;28;97284;-65
2021/10/15 13:58:41;;;;;;;;;2.00;2.00;;;;;23.09;30.61;98695.44;6132808;28;96888;-65
2021/10/15 14:01:53;;;;;;;;;2.00;2.00;;;;;23.02;30.76;98703.28;6113271;28;99511;-65
2021/10/15 14:04:57;;;;;;;;;3.00;3.00;;;;;23.05;30.62;98699.94;6138043;28;97093;-65
2021/10/15 14:08:00;;;;;;;;;2.75;2.00;;;;;22.83;30.91;98695.16;6108287;28;98877;-64
2021/10/15 14:11:05;;;;;;;;;4.00;2.00;;;;;23.09;30.68;98716.63;6102068;28;99896;-64
2021/10/15 14:14:09;;;;;;;;;2.20;2.00;;;;;23.00;30.82;98712.97;6137474;28;96772;-63
2021/10/15 14:17:13;;;;;;;;;3.00;2.00;;;;;22.74;31.26;98720.91;6140740;28;98137;-65
2021/10/15 14:20:16;;;;;;;;;5.00;4.00;;;;;22.27;32.15;98722.88;6123542;28;96526;-65
2021/10/15 14:23:19;;;;;;;;;2.75;2.75;;;;;22.27;31.87;98722.03;6122045;28;96742;-65
2021/10/15 14:26:24;;;;;;;;;3.20;3.00;;;;;22.29;32.29;98715.13;6142376;28;97078;-65
2021/10/15 14:29:27;;;;;;;;;3.75;3.00;;;;;22.41;31.78;98714.63;6142229;28;97415;-65
2021/10/15 14:32:30;;;;;;;;;3.00;3.00;;;;;22.20;32.20;98716.94;6122644;28;98675;-65
2021/10/15 14:35:50;;;;;;;;;3.00;3.00;;;;;21.72;32.67;98716.34;6132754;28;97410;-64
2021/10/15 14:38:54;;;;;;;;;2.75;2.75;;;;;21.71;32.54;98709.22;6141206;28;97514;-64
2021/10/15 14:41:58;;;;;;;;;3.00;2.80;;;;;21.72;32.52;98716.34;6121497;28;100051;-64
2021/10/15 14:45:10;;;;;;;;;4.00;4.00;;;;;21.70;32.69;98715.03;6144643;28;97543;-64
2021/10/15 14:48:13;;;;;;;;;4.00;4.00;;;;;21.75;32.84;98718.47;6135847;28;97647;-65
2021/10/15 14:51:17;;;;;;;;;4.00;4.00;;;;;21.58;32.67;98677.88;6123442;28;97164;-65
2021/10/15 14:54:21;;;;;;;;;3.00;3.00;;;;;21.71;32.81;98716.63;6141653;28;96694;-64
2021/10/15 14:57:26;;;;;;;;;4.00;3.75;;;;;21.36;32.95;98709.75;6141144;28;97486;-65
2021/10/15 15:00:29;;;;;;;;;4.00;4.00;;;;;21.14;33.45;98715.81;6114528;28;100166;-65
2021/10/15 15:03:33;;;;;;;;;5.00;5.00;;;;;20.86;34.03;98720.25;6124257;28;99194;-65
2021/10/15 15:06:36;;;;;;;;;4.00;4.00;;;;;20.68;34.58;98721.00;6112697;28;99483;-65
2021/10/15 15:09:43;;;;;;;;;4.00;4.00;;;;;20.44;35.10;98709.22;6137377;28;96695;-64
2021/10/15 15:12:48;;;;;;;;;2.50;2.50;;;;;20.39;35.22;98721.03;6125058;28;97975;-64
2021/10/15 15:15:51;;;;;;;;;4.00;4.00;;;;;20.29;35.23;98723.84;6139774;28;97469;-65
2021/10/15 15:18:54;;;;;;;;;3.00;3.00;;;;;20.02;35.77;98720.84;6128783;28;97618;-64
2021/10/15 15:22:17;;;;;;;;;4.67;3.00;;;;;19.78;36.22;98718.84;6131001;28;96502;-65
2021/10/15 15:25:21;;;;;;;;;4.00;4.00;;;;;19.70;36.18;98721.34;6122186;28;96776;-65
2021/10/15 15:28:27;;;;;;;;;4.00;3.80;;;;;19.70;36.44;98719.44;6120776;28;98544;-64
2021/10/15 15:31:31;;;;;;;;;4.00;3.60;;;;;19.50;36.71;98729.72;6138284;28;97082;-64
2021/10/15 15:34:34;;;;;;;;;4.60;4.00;;;;;19.40;36.98;98734.09;6137911;28;96685;-64
2021/10/15 15:37:38;;;;;;;;;3.00;3.00;;;;;19.14;37.18;98709.94;6137691;28;97086;-65
2021/10/15 15:40:42;;;;;;;;;3.50;3.50;;;;;19.32;37.47;98744.81;6138784;28;97153;-65
2021/10/15 15:43:48;;;;;;;;;4.40;4.00;;;;;19.31;37.43;98743.16;6138491;28;97443;-65
2021/10/15 15:46:57;;;;;;;;;3.00;3.00;;;;;19.18;37.77;98749.25;6137467;28;97510;-64
2021/10/15 15:50:02;;;;;;;;;5.50;5.00;;;;;19.08;37.55;98743.84;6140385;28;97456;-64
2021/10/15 15:53:08;;;;;;;;;4.00;4.00;;;;;19.02;37.53;98735.66;6104933;28;97956;-65
2021/10/15 15:56:12;;;;;;;;;4.00;3.00;;;;;18.97;37.79;98743.88;6115461;28;97804;-65
2021/10/15 15:59:16;;;;;;;;;4.00;3.00;;;;;18.91;37.89;98746.94;6123144;28;98371;-65
2021/10/15 16:02:20;;;;;;;;;3.80;3.00;;;;;18.87;37.93;98745.84;6139777;28;96532;-65
2021/10/15 16:05:27;;;;;;;;;5.25;4.25;;;;;18.86;37.81;98747.75;6115351;28;98326;-65
2021/10/15 16:08:31;;;;;;;;;4.20;4.00;;;;;18.82;37.83;98746.66;6117951;28;96726;-65
2021/10/15 16:11:34;;;;;;;;;4.00;3.60;;;;;18.72;38.15;98754.06;6119300;28;97907;-65
2021/10/15 16:14:39;;;;;;;;;5.00;4.00;;;;;18.68;38.03;98755.72;6137004;28;97027;-65
2021/10/15 16:17:42;;;;;;;;;6.00;5.00;;;;;18.63;38.36;98755.75;6137357;28;96633;-65
2021/10/15 16:20:45;;;;;;;;;5.00;5.00;;;;;18.60;38.39;98754.41;6119896;28;97226;-65
2021/10/15 16:23:49;;;;;;;;;4.00;4.00;;;;;18.45;38.53;98771.59;6124755;28;96818;-64
2021/10/15 16:26:52;;;;;;;;;6.00;6.00;;;;;18.48;38.76;98762.03;6141597;28;97498;-64
2021/10/15 16:29:56;;;;;;;;;9.20;8.00;;;;;18.33;38.82;98753.84;6121684;28;96825;-65
2021/10/15 16:33:00;;;;;;;;;7.40;7.40;;;;;18.34;38.99;98759.06;6123283;28;99505;-65
2021/10/15 16:36:03;;;;;;;;;7.40;7.00;;;;;18.38;38.96;98759.31;6142783;28;97200;-65
2021/10/15 16:39:06;;;;;;;;;5.40;4.40;;;;;18.31;38.77;98759.59;6140522;28;97031;-63
2021/10/15 16:42:13;;;;;;;;;7.00;6.00;;;;;18.23;38.60;98740.25;6122400;28;98622;-64
2021/10/15 16:45:18;;;;;;;;;7.00;6.00;;;;;18.39;39.01;98750.84;6142072;28;97103;-65
2021/10/15 16:48:21;;;;;;;;;8.00;7.00;;;;;18.36;38.70;98742.41;6140120;28;96521;-64
2021/10/15 16:51:24;;;;;;;;;7.40;6.00;;;;;18.37;38.70;98736.69;6123008;28;97863;-65
2021/10/15 16:54:28;;;;;;;;;5.00;4.25;;;;;18.32;38.73;98744.06;6142666;28;96662;-64
2021/10/15 16:57:31;;;;;;;;;4.00;4.00;;;;;18.26;38.88;98745.97;6124702;28;100103;-65
2021/10/15 17:00:36;;;;;;;;;6.00;5.00;;;;;18.06;38.98;98715.97;6110159;28;97221;-65
2021/10/15 17:03:39;;;;;;;;;4.60;4.00;;;;;18.21;38.98;98750.59;6142241;28;96538;-65
2021/10/15 17:06:43;;;;;;;;;5.00;5.00;;;;;18.17;38.99;98753.91;6118262;28;97473;-64
2021/10/15 17:09:46;;;;;;;;;6.60;5.00;;;;;18.15;39.15;98753.34;6105176;28;100194;-65
2021/10/15 17:12:49;;;;;;;;;5.00;4.00;;;;;18.06;39.51;98755.00;6122916;28;96857;-65
2021/10/15 17:15:54;;;;;;;;;5.00;5.00;;;;;18.07;39.46;98753.09;6144214;28;98133;-65
2021/10/15 17:18:58;;;;;;;;;5.80;5.40;;;;;17.96;39.48;98752.25;6131273;28;96973;-64
2021/10/15 17:22:02;;;;;;;;;7.00;6.60;;;;;18.03;39.53;98755.50;6123315;28;98483;-64
2021/10/15 17:25:06;;;;;;;;;6.00;6.00;;;;;18.02;39.69;98756.63;6138931;28;97203;-64
2021/10/15 17:28:09;;;;;;;;;6.60;6.60;;;;;18.01;39.66;98751.44;6139603;28;96714;-65
2021/10/15 17:31:14;;;;;;;;;5.33;5.33;;;;;17.97;39.73;98744.91;6136977;28;97346;-64
2021/10/15 17:34:17;;;;;;;;;7.60;7.00;;;;;17.89;39.94;98745.41;6136635;28;97528;-63
2021/10/15 17:37:20;;;;;;;;;7.00;7.00;;;;;17.87;39.92;98742.16;6129975;28;97221;-65
2021/10/15 17:40:24;;;;;;;;;6.00;6.00;;;;;17.88;39.91;98739.19;6115906;28;99517;-64
2021/10/15 17:43:27;;;;;;;;;8.40;7.40;;;;;17.83;40.29;98749.25;6136226;28;97626;-65
2021/10/15 17:46:32;;;;;;;;;8.20;7.20;;;;;17.71;40.22;98730.44;6105175;28;97776;-65
2021/10/15 17:49:35;;;;;;;;;5.40;5.40;;;;;17.83;40.01;98746.53;6121180;28;97461;-65
2021/10/15 17:52:39;;;;;;;;;8.00;8.00;;;;;17.79;39.99;98740.78;6121864;28;97382;-63
2021/10/15 17:55:44;;;;;;;;;8.00;7.40;;;;;17.87;39.94;98747.63;6138856;28;96692;-64
2021/10/15 17:58:48;;;;;;;;;7.00;7.00;;;;;17.82;40.15;98737.53;6119125;28;97653;-65
2021/10/15 18:01:52;;;;;;;;;5.60;5.60;;;;;17.75;40.21;98731.50;6122546;28;96957;-65
2021/10/15 18:04:55;;;;;;;;;7.00;7.00;;;;;17.78;40.06;98738.34;6121361;28;97302;-65
2021/10/15 18:07:59;;;;;;;;;7.00;7.00;;;;;17.80;40.23;98733.44;6139364;28;96619;-65
2021/10/15 18:11:03;;;;;;;;;8.50;7.50;;;;;17.74;40.48;98729.88;6138395;28;96746;-64
2021/10/15 18:14:06;;;;;;;;;8.00;7.75;;;;;17.67;40.43;98718.44;6122274;28;97419;-64
2021/10/15 18:17:10;;;;;;;;;9.40;8.20;;;;;17.62;40.74;98734.78;6125254;28;99567;-65
2021/10/15 18:20:14;;;;;;;;;9.00;7.00;;;;;17.60;40.88;98726.03;6136611;28;96785;-63
2021/10/15 18:23:17;;;;;;;;;10.00;8.80;;;;;17.61;40.55;98730.41;6130206;28;98000;-65
2021/10/15 18:26:21;;;;;;;;;9.50;8.50;;;;;17.58;40.67;98726.31;6141339;28;97354;-65
2021/10/15 18:29:24;;;;;;;;;8.00;8.00;;;;;17.46;41.25;98727.63;6133322;28;97453;-64
2021/10/15 18:32:29;;;;;;;;;9.00;8.00;;;;;17.49;40.96;98738.00;6121004;28;98323;-65
2021/10/15 18:35:32;;;;;;;;;7.60;7.60;;;;;17.47;41.16;98724.66;6108419;28;97015;-65
2021/10/15 18:38:37;;;;;;;;;8.40;8.00;;;;;17.45;41.33;98724.09;6121603;28;97488;-65
2021/10/15 18:42:00;;;;;;;;;19.00;19.00;;;;;17.37;41.54;98716.44;6118714;28;96683;-65
2021/10/15 18:45:04;;;;;;;;;12.00;10.50;;;;;17.30;41.68;98707.69;6139450;28;96923;-65
2021/10/15 18:48:09;;;;;;;;;11.00;11.00;;;;;17.21;41.99;98699.25;6136434;28;97408;-65
2021/10/15 18:51:13;;;;;;;;;13.00;11.00;;;;;17.30;41.99;98713.97;6119605;28;100318;-65
2021/10/15 18:54:16;;;;;;;;;10.75;10.75;;;;;17.37;41.67;98715.63;6138106;28;96554;-64
2021/10/15 18:57:19;;;;;;;;;11.80;11.20;;;;;17.42;41.57;98716.47;6140756;28;97514;-64
2021/10/15 19:00:27;;;;;;;;;9.20;8.20;;;;;17.48;41.38;98717.28;6135616;28;97206;-65
2021/10/15 19:03:32;;;;;;;;;13.00;12.00;;;;;17.54;41.33;98718.94;6138199;28;96387;-65
2021/10/15 19:06:35;;;;;;;;;16.75;14.25;;;;;17.60;41.43;98721.41;6119290;28;98076;-64
2021/10/15 19:09:39;;;;;;;;;14.00;12.00;;;;;17.64;41.40;98719.00;6135716;28;96635;-65
2021/10/15 19:12:42;;;;;;;;;11.00;11.00;;;;;17.68;41.40;98709.16;6116611;28;97525;-64
2021/10/15 19:15:45;;;;;;;;;11.60;10.00;;;;;17.70;41.33;98712.44;6103959;28;98534;-65
2021/10/15 19:18:50;;;;;;;;;10.00;9.00;;;;;17.76;41.18;98708.63;6136123;28;96754;-65
2021/10/15 19:21:53;;;;;;;;;13.00;11.00;;;;;17.81;41.19;98724.16;6138368;28;96881;-65
2021/10/15 19:24:57;;;;;;;;;16.50;15.00;;;;;17.84;41.20;98723.63;6140568;28;97376;-65
2021/10/15 19:28:02;;;;;;;;;13.00;12.00;;;;;17.77;41.49;98709.44;6124399;28;96997;-63
2021/10/15 19:31:05;;;;;;;;;10.00;9.00;;;;;17.87;41.03;98731.25;6141255;28;97516;-65
2021/10/15 19:34:09;;;;;;;;;11.00;10.00;;;;;17.81;41.14;98733.16;6137131;28;98026;-65
2021/10/15 19:37:13;;;;;;;;;9.00;8.00;;;;;17.73;41.53;98725.53;6139847;28;96969;-65
2021/10/15 19:40:16;;;;;;;;;10.00;9.00;;;;;17.72;41.53;98724.72;6117742;28;97797;-65
2021/10/15 19:43:23;;;;;;;;;12.00;11.00;;;;;17.74;41.59;98718.97;6092253;28;98377;-65
2021/10/15 19:46:28;;;;;;;;;10.00;8.80;;;;;17.69;41.99;98713.53;6139561;28;96813;-63
2021/10/15 19:49:33;;;;;;;;;11.00;9.40;;;;;17.64;42.26;98711.59;6092950;28;96671;-65
2021/10/15 19:52:36;;;;;;;;;10.75;9.75;;;;;17.63;42.26;98703.72;6115441;28;97490;-64
2021/10/15 19:55:40;;;;;;;;;9.40;9.40;;;;;17.60;42.30;98702.34;6121157;28;96549;-65
2021/10/15 19:58:43;;;;;;;;;12.00;10.00;;;;;17.59;42.57;98699.91;6104519;28;97822;-65
2021/10/15 20:01:47;;;;;;;;;12.00;11.00;;;;;17.62;42.47;98694.72;6117444;28;97368;-64
2021/10/15 20:04:52;;;;;;;;;11.00;10.00;;;;;17.62;42.49;98689.25;6127109;28;97913;-65
2021/10/15 20:07:56;;;;;;;;;11.60;11.00;;;;;17.63;42.35;98690.09;6115525;28;96592;-65
2021/10/15 20:10:59;;;;;;;;;11.80;10.40;;;;;17.54;42.80;98692.50;6142838;28;97402;-64
2021/10/15 20:14:04;;;;;;;;;13.00;12.00;;;;;17.46;42.76;98675.84;6125921;28;98820;-65
2021/10/15 20:17:27;;;;;;;;;11.50;10.00;;;;;17.52;42.86;98688.41;6144170;28;96648;-65
2021/10/15 20:20:31;;;;;;;;;12.20;11.00;;;;;17.55;42.43;98688.66;6141484;28;96621;-64
2021/10/15 20:23:37;;;;;;;;;12.00;9.00;;;;;17.55;42.50;98694.13;6129163;28;97512;-65
2021/10/15 20:26:43;;;;;;;;;9.00;9.00;;;;;17.55;42.39;98693.28;6108692;28;96967;-64
2021/10/15 20:29:47;;;;;;;;;8.60;8.00;;;;;17.54;42.44;98692.50;6143783;28;97243;-65
2021/10/15 20:32:50;;;;;;;;;9.00;8.60;;;;;17.52;42.45;98693.84;6114282;28;97516;-65
2021/10/15 20:35:55;;;;;;;;;10.00;8.60;;;;;17.50;42.57;98696.00;6138150;28;97471;-63
2021/10/15 20:38:59;;;;;;;;;9.50;9.00;;;;;17.46;42.91;98690.31;6136386;28;98006;-63
2021/10/15 20:42:02;;;;;;;;;8.75;8.00;;;;;17.51;42.68;98694.94;6134891;28;97521;-65
2021/10/15 20:45:06;;;;;;;;;10.60;10.00;;;;;17.54;42.60;98697.13;6142860;28;97127;-65
2021/10/15 20:48:09;;;;;;;;;10.00;9.60;;;;;17.54;42.61;98687.06;6120730;28;96846;-65
2021/10/15 20:51:14;;;;;;;;;8.00;8.00;;;;;17.41;42.68;98671.22;6128510;28;97544;-65
2021/10/15 20:54:17;;;;;;;;;10.00;8.60;;;;;17.55;42.72;98691.38;6108048;28;97906;-65
2021/10/15 20:57:22;;;;;;;;;17.40;15.40;;;;;17.30;43.00;98645.84;6141673;28;97306;-64
2021/10/15 21:00:25;;;;;;;;;13.00;11.00;;;;;17.55;42.84;98682.41;6126495;28;96749;-65